sensor_id;sensor_type;location;lat;lon;timestamp;P1;durP1;ratioP1;P2;durP2;ratioP2
12816;SDS011;6473;51.552;6.716;2022-10-16T00:02:15;3.50;;;2.67;;
12816;SDS011;6473;51.552;6.716;2022-10-16T00:04:45;7.53;;;2.90;;
12816;SDS011;6473;51.552;6.716;2022-10-16T00:07:40;5.07;;;2.72;;
12816;SDS011;6473;51.552;6.716;2022-10-16T00:10:10;4.13;;;3.00;;
12816;SDS011;6473;51.552;6.716;2022-10-16T00:12:37;3.25;;;2.80;;
12816;SDS011;6473;51.552;6.716;2022-10-16T00:15:05;5.88;;;3.10;;
12816;SDS011;6473;51.552;6.716;2022-10-16T00:17:32;5.57;;;2.80;;
12816;SDS011;6473;51.552;6.716;2022-10-16T00:19:59;3.55;;;2.67;;
12816;SDS011;6473;51.552;6.716;2022-10-16T00:22:30;4.97;;;2.85;;
12816;SDS011;6473;51.552;6.716;2022-10-16T00:25:04;3.03;;;2.50;;
12816;SDS011;6473;51.552;6.716;2022-10-16T00:27:33;5.00;;;2.60;;
12816;SDS011;6473;51.552;6.716;2022-10-16T00:30:00;3.38;;;2.60;;
12816;SDS011;6473;51.552;6.716;2022-10-16T00:32:27;5.30;;;3.10;;
12816;SDS011;6473;51.552;6.716;2022-10-16T00:34:54;4.80;;;2.75;;
12816;SDS011;6473;51.552;6.716;2022-10-16T00:37:23;5.68;;;2.20;;
12816;SDS011;6473;51.552;6.716;2022-10-16T00:39:50;3.97;;;2.80;;
12816;SDS011;6473;51.552;6.716;2022-10-16T00:42:18;3.05;;;2.75;;
12816;SDS011;6473;51.552;6.716;2022-10-16T00:44:47;5.43;;;2.72;;
12816;SDS011;6473;51.552;6.716;2022-10-16T00:47:22;6.80;;;3.00;;
12816;SDS011;6473;51.552;6.716;2022-10-16T00:49:59;5.90;;;2.63;;
12816;SDS011;6473;51.552;6.716;2022-10-16T00:52:28;3.90;;;2.65;;
12816;SDS011;6473;51.552;6.716;2022-10-16T00:54:55;4.88;;;3.20;;
12816;SDS011;6473;51.552;6.716;2022-10-16T00:57:25;3.65;;;2.42;;
12816;SDS011;6473;51.552;6.716;2022-10-16T00:59:52;4.50;;;2.63;;
12816;SDS011;6473;51.552;6.716;2022-10-16T01:02:20;4.88;;;2.70;;
12816;SDS011;6473;51.552;6.716;2022-10-16T01:04:48;5.60;;;2.65;;
12816;SDS011;6473;51.552;6.716;2022-10-16T01:07:26;5.40;;;2.50;;
12816;SDS011;6473;51.552;6.716;2022-10-16T01:10:06;3.92;;;2.50;;
12816;SDS011;6473;51.552;6.716;2022-10-16T01:12:41;3.10;;;2.80;;
12816;SDS011;6473;51.552;6.716;2022-10-16T01:15:15;4.85;;;2.63;;
12816;SDS011;6473;51.552;6.716;2022-10-16T01:17:48;3.35;;;2.90;;
12816;SDS011;6473;51.552;6.716;2022-10-16T01:20:21;3.50;;;2.58;;
12816;SDS011;6473;51.552;6.716;2022-10-16T01:23:03;3.67;;;2.83;;
12816;SDS011;6473;51.552;6.716;2022-10-16T01:28:43;3.38;;;3.08;;
12816;SDS011;6473;51.552;6.716;2022-10-16T01:31:17;4.30;;;2.60;;
12816;SDS011;6473;51.552;6.716;2022-10-16T01:33:47;5.55;;;2.35;;
12816;SDS011;6473;51.552;6.716;2022-10-16T01:36:18;4.13;;;2.58;;
12816;SDS011;6473;51.552;6.716;2022-10-16T01:38:52;3.35;;;2.63;;
12816;SDS011;6473;51.552;6.716;2022-10-16T01:41:23;3.25;;;2.47;;
12816;SDS011;6473;51.552;6.716;2022-10-16T01:43:56;2.85;;;2.50;;
12816;SDS011;6473;51.552;6.716;2022-10-16T01:46:27;3.60;;;2.53;;
12816;SDS011;6473;51.552;6.716;2022-10-16T01:48:57;2.60;;;2.40;;
12816;SDS011;6473;51.552;6.716;2022-10-16T01:51:26;2.88;;;2.53;;
12816;SDS011;6473;51.552;6.716;2022-10-16T01:53:55;5.95;;;2.70;;
12816;SDS011;6473;51.552;6.716;2022-10-16T01:56:26;3.40;;;2.63;;
12816;SDS011;6473;51.552;6.716;2022-10-16T01:58:57;3.20;;;2.50;;
12816;SDS011;6473;51.552;6.716;2022-10-16T02:01:29;2.40;;;2.20;;
12816;SDS011;6473;51.552;6.716;2022-10-16T02:04:01;2.92;;;2.15;;
12816;SDS011;6473;51.552;6.716;2022-10-16T02:06:37;2.58;;;2.35;;
12816;SDS011;6473;51.552;6.716;2022-10-16T02:09:04;2.80;;;2.17;;
12816;SDS011;6473;51.552;6.716;2022-10-16T02:11:31;2.80;;;2.00;;
12816;SDS011;6473;51.552;6.716;2022-10-16T02:14:00;1.88;;;1.77;;
12816;SDS011;6473;51.552;6.716;2022-10-16T02:16:33;2.90;;;1.90;;
12816;SDS011;6473;51.552;6.716;2022-10-16T02:19:03;1.70;;;1.60;;
12816;SDS011;6473;51.552;6.716;2022-10-16T02:21:32;3.75;;;1.73;;
12816;SDS011;6473;51.552;6.716;2022-10-16T02:24:06;2.75;;;1.73;;
12816;SDS011;6473;51.552;6.716;2022-10-16T02:26:40;3.72;;;1.50;;
12816;SDS011;6473;51.552;6.716;2022-10-16T02:29:16;5.68;;;1.77;;
12816;SDS011;6473;51.552;6.716;2022-10-16T02:31:55;1.88;;;1.70;;
12816;SDS011;6473;51.552;6.716;2022-10-16T02:34:30;2.83;;;1.92;;
12816;SDS011;6473;51.552;6.716;2022-10-16T02:36:59;3.22;;;1.67;;
12816;SDS011;6473;51.552;6.716;2022-10-16T02:39:28;1.80;;;1.70;;
12816;SDS011;6473;51.552;6.716;2022-10-16T02:42:00;2.17;;;1.60;;
12816;SDS011;6473;51.552;6.716;2022-10-16T02:44:32;2.70;;;1.83;;
12816;SDS011;6473;51.552;6.716;2022-10-16T02:47:00;2.72;;;1.75;;
12816;SDS011;6473;51.552;6.716;2022-10-16T02:49:27;1.55;;;1.40;;
12816;SDS011;6473;51.552;6.716;2022-10-16T02:51:55;2.63;;;1.58;;
12816;SDS011;6473;51.552;6.716;2022-10-16T02:54:22;2.00;;;1.55;;
12816;SDS011;6473;51.552;6.716;2022-10-16T02:56:49;1.63;;;1.40;;
12816;SDS011;6473;51.552;6.716;2022-10-16T02:59:17;1.52;;;1.30;;
12816;SDS011;6473;51.552;6.716;2022-10-16T03:01:45;2.08;;;1.77;;
12816;SDS011;6473;51.552;6.716;2022-10-16T03:04:13;1.65;;;1.52;;
12816;SDS011;6473;51.552;6.716;2022-10-16T03:06:40;1.65;;;1.30;;
12816;SDS011;6473;51.552;6.716;2022-10-16T03:09:07;3.58;;;1.50;;
12816;SDS011;6473;51.552;6.716;2022-10-16T03:11:33;2.85;;;1.20;;
12816;SDS011;6473;51.552;6.716;2022-10-16T03:14:00;1.23;;;1.13;;
12816;SDS011;6473;51.552;6.716;2022-10-16T03:16:27;1.40;;;1.30;;
12816;SDS011;6473;51.552;6.716;2022-10-16T03:18:55;3.85;;;1.63;;
12816;SDS011;6473;51.552;6.716;2022-10-16T03:21:42;1.38;;;1.27;;
12816;SDS011;6473;51.552;6.716;2022-10-16T03:24:10;1.35;;;1.25;;
12816;SDS011;6473;51.552;6.716;2022-10-16T03:26:38;3.67;;;1.15;;
12816;SDS011;6473;51.552;6.716;2022-10-16T03:29:05;3.13;;;1.30;;
12816;SDS011;6473;51.552;6.716;2022-10-16T03:31:32;1.35;;;1.20;;
12816;SDS011;6473;51.552;6.716;2022-10-16T03:34:00;1.65;;;1.30;;
12816;SDS011;6473;51.552;6.716;2022-10-16T03:36:27;1.67;;;1.30;;
12816;SDS011;6473;51.552;6.716;2022-10-16T03:38:56;1.60;;;1.50;;
12816;SDS011;6473;51.552;6.716;2022-10-16T03:41:23;1.10;;;1.00;;
12816;SDS011;6473;51.552;6.716;2022-10-16T03:43:50;1.00;;;1.00;;
12816;SDS011;6473;51.552;6.716;2022-10-16T03:46:17;1.75;;;1.30;;
12816;SDS011;6473;51.552;6.716;2022-10-16T03:48:44;1.90;;;1.10;;
12816;SDS011;6473;51.552;6.716;2022-10-16T03:51:13;1.27;;;0.98;;
12816;SDS011;6473;51.552;6.716;2022-10-16T03:53:40;1.10;;;1.10;;
12816;SDS011;6473;51.552;6.716;2022-10-16T03:56:07;2.42;;;1.02;;
12816;SDS011;6473;51.552;6.716;2022-10-16T03:58:35;1.83;;;1.20;;
12816;SDS011;6473;51.552;6.716;2022-10-16T04:01:02;1.05;;;1.05;;
12816;SDS011;6473;51.552;6.716;2022-10-16T04:03:29;1.27;;;1.15;;
12816;SDS011;6473;51.552;6.716;2022-10-16T04:05:56;1.88;;;1.30;;
12816;SDS011;6473;51.552;6.716;2022-10-16T04:08:24;3.25;;;1.20;;
12816;SDS011;6473;51.552;6.716;2022-10-16T04:10:51;1.23;;;1.10;;
12816;SDS011;6473;51.552;6.716;2022-10-16T04:13:18;0.82;;;0.82;;
12816;SDS011;6473;51.552;6.716;2022-10-16T04:15:48;1.00;;;0.90;;
12816;SDS011;6473;51.552;6.716;2022-10-16T04:18:15;2.53;;;1.17;;
12816;SDS011;6473;51.552;6.716;2022-10-16T04:20:42;1.33;;;1.20;;
12816;SDS011;6473;51.552;6.716;2022-10-16T04:23:09;1.58;;;0.88;;
12816;SDS011;6473;51.552;6.716;2022-10-16T04:25:37;1.30;;;1.17;;
12816;SDS011;6473;51.552;6.716;2022-10-16T04:28:04;1.75;;;1.25;;
12816;SDS011;6473;51.552;6.716;2022-10-16T04:30:38;2.20;;;1.27;;
12816;SDS011;6473;51.552;6.716;2022-10-16T04:33:05;1.48;;;1.00;;
12816;SDS011;6473;51.552;6.716;2022-10-16T04:35:32;0.90;;;0.90;;
12816;SDS011;6473;51.552;6.716;2022-10-16T04:37:59;0.98;;;0.98;;
12816;SDS011;6473;51.552;6.716;2022-10-16T04:40:29;1.08;;;1.08;;
12816;SDS011;6473;51.552;6.716;2022-10-16T04:42:59;1.20;;;1.02;;
12816;SDS011;6473;51.552;6.716;2022-10-16T04:45:26;1.10;;;1.10;;
12816;SDS011;6473;51.552;6.716;2022-10-16T04:47:56;1.10;;;1.00;;
12816;SDS011;6473;51.552;6.716;2022-10-16T04:50:23;2.35;;;1.10;;
12816;SDS011;6473;51.552;6.716;2022-10-16T04:53:03;2.83;;;1.13;;
12816;SDS011;6473;51.552;6.716;2022-10-16T04:55:42;2.35;;;1.10;;
12816;SDS011;6473;51.552;6.716;2022-10-16T04:58:11;1.05;;;0.95;;
12816;SDS011;6473;51.552;6.716;2022-10-16T05:00:38;1.05;;;1.00;;
12816;SDS011;6473;51.552;6.716;2022-10-16T05:03:08;1.05;;;1.00;;
12816;SDS011;6473;51.552;6.716;2022-10-16T05:06:24;2.95;;;1.13;;
12816;SDS011;6473;51.552;6.716;2022-10-16T05:12:41;1.15;;;1.10;;
12816;SDS011;6473;51.552;6.716;2022-10-16T05:15:09;2.97;;;1.15;;
12816;SDS011;6473;51.552;6.716;2022-10-16T05:17:36;1.65;;;1.15;;
12816;SDS011;6473;51.552;6.716;2022-10-16T05:20:03;1.08;;;1.08;;
12816;SDS011;6473;51.552;6.716;2022-10-16T05:22:31;2.25;;;1.15;;
12816;SDS011;6473;51.552;6.716;2022-10-16T05:24:58;1.10;;;1.00;;
12816;SDS011;6473;51.552;6.716;2022-10-16T05:27:25;2.22;;;1.17;;
12816;SDS011;6473;51.552;6.716;2022-10-16T05:29:54;5.47;;;1.20;;
12816;SDS011;6473;51.552;6.716;2022-10-16T05:32:21;1.70;;;1.30;;
12816;SDS011;6473;51.552;6.716;2022-10-16T05:34:48;2.58;;;1.20;;
12816;SDS011;6473;51.552;6.716;2022-10-16T05:37:15;1.27;;;1.20;;
12816;SDS011;6473;51.552;6.716;2022-10-16T05:39:42;1.27;;;1.17;;
12816;SDS011;6473;51.552;6.716;2022-10-16T05:42:09;1.70;;;1.00;;
12816;SDS011;6473;51.552;6.716;2022-10-16T05:44:36;2.28;;;1.35;;
12816;SDS011;6473;51.552;6.716;2022-10-16T05:47:04;1.35;;;1.10;;
12816;SDS011;6473;51.552;6.716;2022-10-16T05:49:35;1.40;;;1.30;;
12816;SDS011;6473;51.552;6.716;2022-10-16T05:52:05;1.15;;;1.10;;
12816;SDS011;6473;51.552;6.716;2022-10-16T05:54:37;2.03;;;1.17;;
12816;SDS011;6473;51.552;6.716;2022-10-16T05:57:04;2.70;;;1.40;;
12816;SDS011;6473;51.552;6.716;2022-10-16T05:59:31;1.50;;;1.40;;
12816;SDS011;6473;51.552;6.716;2022-10-16T06:02:15;1.20;;;1.02;;
12816;SDS011;6473;51.552;6.716;2022-10-16T06:04:42;1.40;;;1.30;;
12816;SDS011;6473;51.552;6.716;2022-10-16T06:07:09;1.10;;;1.10;;
12816;SDS011;6473;51.552;6.716;2022-10-16T06:09:36;1.50;;;1.40;;
12816;SDS011;6473;51.552;6.716;2022-10-16T06:12:03;2.03;;;1.42;;
12816;SDS011;6473;51.552;6.716;2022-10-16T06:14:30;3.38;;;1.50;;
12816;SDS011;6473;51.552;6.716;2022-10-16T06:16:57;1.40;;;1.30;;
12816;SDS011;6473;51.552;6.716;2022-10-16T06:19:26;4.18;;;1.70;;
12816;SDS011;6473;51.552;6.716;2022-10-16T06:21:52;4.43;;;1.63;;
12816;SDS011;6473;51.552;6.716;2022-10-16T06:24:20;2.28;;;1.80;;
12816;SDS011;6473;51.552;6.716;2022-10-16T06:26:47;5.00;;;1.40;;
12816;SDS011;6473;51.552;6.716;2022-10-16T06:29:23;1.40;;;1.30;;
12816;SDS011;6473;51.552;6.716;2022-10-16T06:32:01;2.50;;;1.50;;
12816;SDS011;6473;51.552;6.716;2022-10-16T06:34:37;1.60;;;1.50;;
12816;SDS011;6473;51.552;6.716;2022-10-16T06:37:07;1.77;;;1.50;;
12816;SDS011;6473;51.552;6.716;2022-10-16T06:39:35;1.80;;;1.70;;
12816;SDS011;6473;51.552;6.716;2022-10-16T06:42:02;2.55;;;2.35;;
12816;SDS011;6473;51.552;6.716;2022-10-16T06:44:34;1.60;;;1.50;;
12816;SDS011;6473;51.552;6.716;2022-10-16T06:47:01;1.65;;;1.55;;
12816;SDS011;6473;51.552;6.716;2022-10-16T06:49:31;4.30;;;1.70;;
12816;SDS011;6473;51.552;6.716;2022-10-16T06:52:03;1.80;;;1.70;;
12816;SDS011;6473;51.552;6.716;2022-10-16T06:54:34;2.50;;;1.70;;
12816;SDS011;6473;51.552;6.716;2022-10-16T06:57:01;4.75;;;1.55;;
12816;SDS011;6473;51.552;6.716;2022-10-16T06:59:30;2.90;;;1.92;;
12816;SDS011;6473;51.552;6.716;2022-10-16T07:01:57;3.42;;;1.90;;
12816;SDS011;6473;51.552;6.716;2022-10-16T07:04:24;2.08;;;1.90;;
12816;SDS011;6473;51.552;6.716;2022-10-16T07:06:51;3.25;;;1.83;;
12816;SDS011;6473;51.552;6.716;2022-10-16T07:09:20;2.47;;;1.92;;
12816;SDS011;6473;51.552;6.716;2022-10-16T07:11:47;2.80;;;1.88;;
12816;SDS011;6473;51.552;6.716;2022-10-16T07:14:15;1.77;;;1.67;;
12816;SDS011;6473;51.552;6.716;2022-10-16T07:16:44;1.92;;;1.70;;
12816;SDS011;6473;51.552;6.716;2022-10-16T07:19:11;3.75;;;1.90;;
12816;SDS011;6473;51.552;6.716;2022-10-16T07:21:39;4.47;;;2.05;;
12816;SDS011;6473;51.552;6.716;2022-10-16T07:24:10;2.65;;;1.90;;
12816;SDS011;6473;51.552;6.716;2022-10-16T07:26:40;2.42;;;2.08;;
12816;SDS011;6473;51.552;6.716;2022-10-16T07:29:11;3.47;;;1.70;;
12816;SDS011;6473;51.552;6.716;2022-10-16T07:31:40;2.10;;;2.00;;
12816;SDS011;6473;51.552;6.716;2022-10-16T07:34:08;2.95;;;1.90;;
12816;SDS011;6473;51.552;6.716;2022-10-16T07:36:36;2.65;;;2.08;;
12816;SDS011;6473;51.552;6.716;2022-10-16T07:39:05;2.42;;;1.83;;
12816;SDS011;6473;51.552;6.716;2022-10-16T07:45:03;3.22;;;1.65;;
12816;SDS011;6473;51.552;6.716;2022-10-16T07:47:33;2.75;;;2.15;;
12816;SDS011;6473;51.552;6.716;2022-10-16T07:50:00;1.88;;;1.75;;
12816;SDS011;6473;51.552;6.716;2022-10-16T07:52:27;2.08;;;1.88;;
12816;SDS011;6473;51.552;6.716;2022-10-16T07:54:54;2.13;;;1.88;;
12816;SDS011;6473;51.552;6.716;2022-10-16T07:57:21;2.15;;;1.50;;
12816;SDS011;6473;51.552;6.716;2022-10-16T07:59:53;1.70;;;1.60;;
12816;SDS011;6473;51.552;6.716;2022-10-16T08:02:37;2.92;;;1.70;;
12816;SDS011;6473;51.552;6.716;2022-10-16T08:05:26;1.65;;;1.55;;
12816;SDS011;6473;51.552;6.716;2022-10-16T08:07:55;1.48;;;1.30;;
12816;SDS011;6473;51.552;6.716;2022-10-16T08:10:31;1.67;;;1.50;;
12816;SDS011;6473;51.552;6.716;2022-10-16T08:12:58;1.50;;;1.40;;
12816;SDS011;6473;51.552;6.716;2022-10-16T08:15:46;1.25;;;1.10;;
12816;SDS011;6473;51.552;6.716;2022-10-16T08:22:48;1.75;;;1.20;;
12816;SDS011;6473;51.552;6.716;2022-10-16T08:27:52;2.33;;;1.70;;
12816;SDS011;6473;51.552;6.716;2022-10-16T08:30:02;2.15;;;1.40;;
12816;SDS011;6473;51.552;6.716;2022-10-16T08:33:55;3.88;;;1.25;;
12816;SDS011;6473;51.552;6.716;2022-10-16T08:36:47;2.28;;;1.35;;
12816;SDS011;6473;51.552;6.716;2022-10-16T08:39:35;2.35;;;1.20;;
12816;SDS011;6473;51.552;6.716;2022-10-16T08:42:07;1.20;;;1.10;;
12816;SDS011;6473;51.552;6.716;2022-10-16T08:45:09;1.27;;;1.13;;
12816;SDS011;6473;51.552;6.716;2022-10-16T08:48:14;2.88;;;1.10;;
12816;SDS011;6473;51.552;6.716;2022-10-16T08:54:01;1.30;;;1.20;;
12816;SDS011;6473;51.552;6.716;2022-10-16T08:58:54;3.83;;;1.30;;
12816;SDS011;6473;51.552;6.716;2022-10-16T09:01:00;2.15;;;1.08;;
12816;SDS011;6473;51.552;6.716;2022-10-16T09:07:06;4.22;;;1.05;;
12816;SDS011;6473;51.552;6.716;2022-10-16T09:09:54;1.52;;;1.20;;
12816;SDS011;6473;51.552;6.716;2022-10-16T09:12:33;3.42;;;1.45;;
12816;SDS011;6473;51.552;6.716;2022-10-16T09:15:42;1.55;;;0.95;;
12816;SDS011;6473;51.552;6.716;2022-10-16T09:18:23;3.42;;;1.25;;
12816;SDS011;6473;51.552;6.716;2022-10-16T09:20:58;3.55;;;1.48;;
12816;SDS011;6473;51.552;6.716;2022-10-16T09:24:14;2.15;;;1.33;;
12816;SDS011;6473;51.552;6.716;2022-10-16T09:26:57;4.30;;;1.20;;
12816;SDS011;6473;51.552;6.716;2022-10-16T09:29:25;1.88;;;0.80;;
12816;SDS011;6473;51.552;6.716;2022-10-16T09:31:52;1.05;;;0.95;;
12816;SDS011;6473;51.552;6.716;2022-10-16T09:34:25;2.30;;;1.10;;
12816;SDS011;6473;51.552;6.716;2022-10-16T09:37:03;2.20;;;1.20;;
12816;SDS011;6473;51.552;6.716;2022-10-16T09:39:45;4.75;;;1.00;;
12816;SDS011;6473;51.552;6.716;2022-10-16T09:42:14;3.15;;;1.23;;
12816;SDS011;6473;51.552;6.716;2022-10-16T09:44:42;1.27;;;1.00;;
12816;SDS011;6473;51.552;6.716;2022-10-16T09:50:22;1.50;;;1.00;;
12816;SDS011;6473;51.552;6.716;2022-10-16T09:53:11;2.42;;;1.20;;
12816;SDS011;6473;51.552;6.716;2022-10-16T09:55:52;1.65;;;0.82;;
12816;SDS011;6473;51.552;6.716;2022-10-16T09:58:21;1.23;;;1.00;;
12816;SDS011;6473;51.552;6.716;2022-10-16T10:01:12;3.15;;;1.10;;
12816;SDS011;6473;51.552;6.716;2022-10-16T10:03:43;1.98;;;0.90;;
12816;SDS011;6473;51.552;6.716;2022-10-16T10:09:47;2.95;;;0.95;;
12816;SDS011;6473;51.552;6.716;2022-10-16T10:12:18;1.55;;;0.90;;
12816;SDS011;6473;51.552;6.716;2022-10-16T10:14:48;1.55;;;0.82;;
12816;SDS011;6473;51.552;6.716;2022-10-16T10:17:21;2.28;;;0.90;;
12816;SDS011;6473;51.552;6.716;2022-10-16T10:19:58;3.42;;;0.88;;
12816;SDS011;6473;51.552;6.716;2022-10-16T10:23:15;2.17;;;0.88;;
12816;SDS011;6473;51.552;6.716;2022-10-16T10:29:34;3.28;;;1.00;;
12816;SDS011;6473;51.552;6.716;2022-10-16T10:32:35;1.33;;;0.60;;
12816;SDS011;6473;51.552;6.716;2022-10-16T10:35:12;1.17;;;0.90;;
12816;SDS011;6473;51.552;6.716;2022-10-16T10:38:39;2.00;;;0.75;;
12816;SDS011;6473;51.552;6.716;2022-10-16T10:42:29;1.25;;;0.88;;
12816;SDS011;6473;51.552;6.716;2022-10-16T10:45:11;2.05;;;0.80;;
12816;SDS011;6473;51.552;6.716;2022-10-16T10:48:14;2.53;;;0.70;;
12816;SDS011;6473;51.552;6.716;2022-10-16T10:51:21;1.48;;;0.90;;
12816;SDS011;6473;51.552;6.716;2022-10-16T10:58:25;3.30;;;1.02;;
12816;SDS011;6473;51.552;6.716;2022-10-16T11:08:57;2.50;;;1.15;;
12816;SDS011;6473;51.552;6.716;2022-10-16T11:11:54;2.15;;;1.10;;
12816;SDS011;6473;51.552;6.716;2022-10-16T11:14:46;3.17;;;1.10;;
12816;SDS011;6473;51.552;6.716;2022-10-16T11:17:19;2.05;;;0.75;;
12816;SDS011;6473;51.552;6.716;2022-10-16T11:20:12;2.00;;;0.82;;
12816;SDS011;6473;51.552;6.716;2022-10-16T11:23:30;1.42;;;0.93;;
12816;SDS011;6473;51.552;6.716;2022-10-16T11:26:06;1.05;;;0.75;;
12816;SDS011;6473;51.552;6.716;2022-10-16T11:30:12;1.58;;;0.95;;
12816;SDS011;6473;51.552;6.716;2022-10-16T11:39:04;2.30;;;0.90;;
12816;SDS011;6473;51.552;6.716;2022-10-16T11:49:30;2.95;;;1.00;;
12816;SDS011;6473;51.552;6.716;2022-10-16T11:58:24;5.30;;;0.88;;
12816;SDS011;6473;51.552;6.716;2022-10-16T12:02:53;0.95;;;0.73;;
12816;SDS011;6473;51.552;6.716;2022-10-16T12:09:22;3.25;;;0.80;;
12816;SDS011;6473;51.552;6.716;2022-10-16T12:11:53;2.70;;;0.77;;
12816;SDS011;6473;51.552;6.716;2022-10-16T12:17:22;1.77;;;0.82;;
12816;SDS011;6473;51.552;6.716;2022-10-16T12:20:00;0.80;;;0.60;;
12816;SDS011;6473;51.552;6.716;2022-10-16T12:22:41;1.50;;;0.90;;
12816;SDS011;6473;51.552;6.716;2022-10-16T12:25:19;1.52;;;0.85;;
12816;SDS011;6473;51.552;6.716;2022-10-16T12:27:53;1.73;;;0.70;;
12816;SDS011;6473;51.552;6.716;2022-10-16T12:30:27;0.75;;;0.60;;
12816;SDS011;6473;51.552;6.716;2022-10-16T12:36:39;1.33;;;0.70;;
12816;SDS011;6473;51.552;6.716;2022-10-16T12:39:16;2.10;;;0.70;;
12816;SDS011;6473;51.552;6.716;2022-10-16T12:41:47;4.13;;;1.00;;
12816;SDS011;6473;51.552;6.716;2022-10-16T12:44:26;2.60;;;0.80;;
12816;SDS011;6473;51.552;6.716;2022-10-16T12:46:59;2.60;;;0.80;;
12816;SDS011;6473;51.552;6.716;2022-10-16T12:49:31;0.73;;;0.50;;
12816;SDS011;6473;51.552;6.716;2022-10-16T12:52:03;1.30;;;0.68;;
12816;SDS011;6473;51.552;6.716;2022-10-16T12:54:31;1.92;;;0.80;;
12816;SDS011;6473;51.552;6.716;2022-10-16T12:57:12;1.77;;;1.00;;
12816;SDS011;6473;51.552;6.716;2022-10-16T12:59:59;1.45;;;0.70;;
12816;SDS011;6473;51.552;6.716;2022-10-16T13:02:45;1.63;;;0.68;;
12816;SDS011;6473;51.552;6.716;2022-10-16T13:05:51;1.00;;;0.50;;
12816;SDS011;6473;51.552;6.716;2022-10-16T13:08:33;1.77;;;0.70;;
12816;SDS011;6473;51.552;6.716;2022-10-16T13:11:14;1.15;;;0.70;;
12816;SDS011;6473;51.552;6.716;2022-10-16T13:13:50;1.08;;;0.50;;
12816;SDS011;6473;51.552;6.716;2022-10-16T13:16:30;3.13;;;1.17;;
12816;SDS011;6473;51.552;6.716;2022-10-16T13:19:08;1.27;;;0.70;;
12816;SDS011;6473;51.552;6.716;2022-10-16T13:21:44;1.60;;;0.70;;
12816;SDS011;6473;51.552;6.716;2022-10-16T13:24:25;3.67;;;0.90;;
12816;SDS011;6473;51.552;6.716;2022-10-16T13:27:04;0.88;;;0.60;;
12816;SDS011;6473;51.552;6.716;2022-10-16T13:29:38;1.95;;;0.70;;
12816;SDS011;6473;51.552;6.716;2022-10-16T13:32:06;2.08;;;0.70;;
12816;SDS011;6473;51.552;6.716;2022-10-16T13:34:43;0.93;;;0.70;;
12816;SDS011;6473;51.552;6.716;2022-10-16T13:37:16;1.00;;;0.60;;
12816;SDS011;6473;51.552;6.716;2022-10-16T13:39:48;2.00;;;0.95;;
12816;SDS011;6473;51.552;6.716;2022-10-16T13:42:18;1.45;;;0.75;;
12816;SDS011;6473;51.552;6.716;2022-10-16T13:44:52;0.77;;;0.70;;
12816;SDS011;6473;51.552;6.716;2022-10-16T13:47:31;2.40;;;0.90;;
12816;SDS011;6473;51.552;6.716;2022-10-16T13:49:59;3.47;;;0.80;;
12816;SDS011;6473;51.552;6.716;2022-10-16T13:52:27;1.88;;;0.80;;
12816;SDS011;6473;51.552;6.716;2022-10-16T13:54:56;1.95;;;1.00;;
12816;SDS011;6473;51.552;6.716;2022-10-16T13:57:49;1.33;;;0.90;;
12816;SDS011;6473;51.552;6.716;2022-10-16T14:00:29;1.70;;;0.95;;
12816;SDS011;6473;51.552;6.716;2022-10-16T14:03:12;2.35;;;0.80;;
12816;SDS011;6473;51.552;6.716;2022-10-16T14:05:45;1.40;;;0.90;;
12816;SDS011;6473;51.552;6.716;2022-10-16T14:08:24;1.45;;;0.60;;
12816;SDS011;6473;51.552;6.716;2022-10-16T14:11:25;2.08;;;1.50;;
12816;SDS011;6473;51.552;6.716;2022-10-16T14:13:58;1.20;;;0.73;;
12816;SDS011;6473;51.552;6.716;2022-10-16T14:16:36;1.75;;;0.75;;
12816;SDS011;6473;51.552;6.716;2022-10-16T14:19:49;1.27;;;0.52;;
12816;SDS011;6473;51.552;6.716;2022-10-16T14:22:47;2.20;;;1.10;;
12816;SDS011;6473;51.552;6.716;2022-10-16T14:25:39;0.70;;;0.70;;
12816;SDS011;6473;51.552;6.716;2022-10-16T14:28:14;1.95;;;0.80;;
12816;SDS011;6473;51.552;6.716;2022-10-16T14:30:51;0.93;;;0.60;;
12816;SDS011;6473;51.552;6.716;2022-10-16T14:33:39;2.15;;;0.93;;
12816;SDS011;6473;51.552;6.716;2022-10-16T14:36:11;2.80;;;0.80;;
12816;SDS011;6473;51.552;6.716;2022-10-16T14:41:56;1.55;;;0.73;;
12816;SDS011;6473;51.552;6.716;2022-10-16T14:47:51;1.75;;;0.85;;
12816;SDS011;6473;51.552;6.716;2022-10-16T14:50:21;0.90;;;0.80;;
12816;SDS011;6473;51.552;6.716;2022-10-16T14:52:50;1.17;;;0.80;;
12816;SDS011;6473;51.552;6.716;2022-10-16T14:56:12;1.38;;;0.90;;
12816;SDS011;6473;51.552;6.716;2022-10-16T14:59:33;1.08;;;0.80;;
12816;SDS011;6473;51.552;6.716;2022-10-16T15:02:13;4.18;;;1.10;;
12816;SDS011;6473;51.552;6.716;2022-10-16T15:05:02;1.02;;;0.90;;
12816;SDS011;6473;51.552;6.716;2022-10-16T15:07:47;2.97;;;1.13;;
12816;SDS011;6473;51.552;6.716;2022-10-16T15:10:30;1.92;;;1.00;;
12816;SDS011;6473;51.552;6.716;2022-10-16T15:12:59;2.42;;;1.10;;
12816;SDS011;6473;51.552;6.716;2022-10-16T15:15:38;1.40;;;1.15;;
12816;SDS011;6473;51.552;6.716;2022-10-16T15:18:16;1.00;;;1.00;;
12816;SDS011;6473;51.552;6.716;2022-10-16T15:23:48;4.18;;;1.00;;
12816;SDS011;6473;51.552;6.716;2022-10-16T15:26:19;3.92;;;1.40;;
12816;SDS011;6473;51.552;6.716;2022-10-16T15:29:13;3.47;;;1.35;;
12816;SDS011;6473;51.552;6.716;2022-10-16T15:32:05;2.65;;;1.67;;
12816;SDS011;6473;51.552;6.716;2022-10-16T15:37:13;3.90;;;1.20;;
12816;SDS011;6473;51.552;6.716;2022-10-16T15:42:59;1.23;;;0.98;;
12816;SDS011;6473;51.552;6.716;2022-10-16T15:45:32;1.55;;;0.90;;
12816;SDS011;6473;51.552;6.716;2022-10-16T15:47:59;3.13;;;1.02;;
12816;SDS011;6473;51.552;6.716;2022-10-16T15:50:26;2.00;;;1.08;;
12816;SDS011;6473;51.552;6.716;2022-10-16T15:56:09;1.38;;;0.80;;
12816;SDS011;6473;51.552;6.716;2022-10-16T15:58:40;3.35;;;1.40;;
12816;SDS011;6473;51.552;6.716;2022-10-16T16:01:26;1.80;;;1.00;;
12816;SDS011;6473;51.552;6.716;2022-10-16T16:04:01;1.63;;;1.20;;
12816;SDS011;6473;51.552;6.716;2022-10-16T16:06:39;1.20;;;1.10;;
12816;SDS011;6473;51.552;6.716;2022-10-16T16:09:14;2.17;;;1.55;;
12816;SDS011;6473;51.552;6.716;2022-10-16T16:12:16;1.58;;;1.30;;
12816;SDS011;6473;51.552;6.716;2022-10-16T16:14:50;2.10;;;1.35;;
12816;SDS011;6473;51.552;6.716;2022-10-16T16:17:33;3.20;;;1.88;;
12816;SDS011;6473;51.552;6.716;2022-10-16T16:20:01;2.47;;;1.30;;
12816;SDS011;6473;51.552;6.716;2022-10-16T16:22:29;4.15;;;1.63;;
12816;SDS011;6473;51.552;6.716;2022-10-16T16:24:58;1.55;;;1.10;;
12816;SDS011;6473;51.552;6.716;2022-10-16T16:27:25;1.80;;;1.23;;
12816;SDS011;6473;51.552;6.716;2022-10-16T16:29:55;3.20;;;1.48;;
12816;SDS011;6473;51.552;6.716;2022-10-16T16:32:22;2.08;;;1.50;;
12816;SDS011;6473;51.552;6.716;2022-10-16T16:34:59;3.70;;;1.80;;
12816;SDS011;6473;51.552;6.716;2022-10-16T16:37:30;4.78;;;1.98;;
12816;SDS011;6473;51.552;6.716;2022-10-16T16:39:58;2.08;;;1.88;;
12816;SDS011;6473;51.552;6.716;2022-10-16T16:42:26;2.67;;;2.13;;
12816;SDS011;6473;51.552;6.716;2022-10-16T16:45:05;2.85;;;1.95;;
12816;SDS011;6473;51.552;6.716;2022-10-16T16:47:41;5.03;;;1.98;;
12816;SDS011;6473;51.552;6.716;2022-10-16T16:50:09;6.15;;;2.33;;
12816;SDS011;6473;51.552;6.716;2022-10-16T16:52:36;2.17;;;1.80;;
12816;SDS011;6473;51.552;6.716;2022-10-16T16:55:04;2.78;;;1.88;;
12816;SDS011;6473;51.552;6.716;2022-10-16T16:57:32;3.38;;;2.60;;
12816;SDS011;6473;51.552;6.716;2022-10-16T16:59:59;3.83;;;2.50;;
12816;SDS011;6473;51.552;6.716;2022-10-16T17:02:29;3.47;;;2.22;;
12816;SDS011;6473;51.552;6.716;2022-10-16T17:04:56;2.83;;;2.30;;
12816;SDS011;6473;51.552;6.716;2022-10-16T17:07:33;5.90;;;2.45;;
12816;SDS011;6473;51.552;6.716;2022-10-16T17:10:05;4.10;;;2.38;;
12816;SDS011;6473;51.552;6.716;2022-10-16T17:12:33;4.05;;;2.40;;
12816;SDS011;6473;51.552;6.716;2022-10-16T17:15:04;5.03;;;3.58;;
12816;SDS011;6473;51.552;6.716;2022-10-16T17:17:46;9.93;;;5.38;;
12816;SDS011;6473;51.552;6.716;2022-10-16T17:20:16;7.25;;;4.68;;
12816;SDS011;6473;51.552;6.716;2022-10-16T17:22:43;9.00;;;3.30;;
12816;SDS011;6473;51.552;6.716;2022-10-16T17:25:11;5.78;;;3.45;;
12816;SDS011;6473;51.552;6.716;2022-10-16T17:27:40;4.18;;;3.22;;